Seaboard, Alabama
Current Conditions -  °F | °C
As of 1:56 AM on Saturday 20 Dec 2014 (Local Time) from KMOB Reporting Station
Light Rain Light Rain  
Wind Chill: 41°   Ceiling: 500
Heat Index: 46°   Visibility: 7mi
Dew Point: 46°   Wind: 9mph
Humidity: 100%   Direction: 60°ENE
Pressure: 30.09"   Gusts: NA
Location:  31.1944°N, 88.2946°W
Report Text: KMOB 200756Z AUTO 06008KT 7SM -RA BKN005 OVC019 08/08 A3009 RMK AO2 RAE06B16 SLP187 P0002 T00780078 $
Loading
Personal Weather Stations






























Interactive Weather Map New forecast layout! Learn more

10-Day Weather Forecast

Advertisements
Track Severe Weather on mobile